Time;durP1;ratioP1;P1;durP2;ratioP2;P2;SDS_P1;SDS_P2;PMS_P1;PMS_P2;Temp;Humidity;BMP_temperature;BMP_pressure;BME280_temperature;BME280_humidity;BME280_pressure;Samples;Min_cycle;Max_cycle;Signal;HPM_P1;HPM_P2
2022/01/17 00:00:46;;;;;;;77.27;37.03;;;5.90;99.90;;;;;;5065969;28;20274;-57
2022/01/17 00:03:13;;;;;;;72.87;37.77;;;5.90;99.90;;;;;;5064805;28;20246;-57
2022/01/17 00:05:40;;;;;;;60.47;35.20;;;5.80;99.90;;;;;;5061957;28;20192;-59
2022/01/17 00:08:09;;;;;;;62.60;31.37;;;5.80;99.90;;;;;;5062471;28;20206;-59
2022/01/17 00:10:38;;;;;;;59.30;30.33;;;5.80;10.20;;;;;;5067518;28;20194;-60
2022/01/17 00:13:05;;;;;;;60.77;31.80;;;5.90;1.00;;;;;;5063680;28;20852;-57
2022/01/17 00:15:46;;;;;;;56.00;30.30;;;5.80;1.00;;;;;;5047740;28;20256;-58
2022/01/17 00:20:46;;;;;;;59.37;27.80;;;5.80;1.00;;;;;;5061797;28;20257;-57
2022/01/17 00:23:14;;;;;;;41.90;24.70;;;5.90;99.90;;;;;;5063587;28;20198;-58
2022/01/17 00:25:44;;;;;;;50.93;27.60;;;5.90;99.90;;;;;;5060904;28;20695;-58
2022/01/17 00:28:11;;;;;;;47.77;26.73;;;5.90;94.00;;;;;;5062809;28;20602;-57
2022/01/17 00:30:38;;;;;;;42.70;25.23;;;5.90;9.80;;;;;;5065962;28;20436;-59
2022/01/17 00:33:05;;;;;;;48.77;26.70;;;5.90;1.00;;;;;;5063423;28;20225;-59
2022/01/17 00:35:32;;;;;;;43.40;24.93;;;5.90;1.00;;;;;;5084329;28;20743;-56
2022/01/17 00:37:59;;;;;;;47.87;25.57;;;5.90;1.00;;;;;;5067498;28;20312;-57
2022/01/17 00:40:26;;;;;;;47.07;26.47;;;5.90;1.00;;;;;;5083556;28;20301;-57
2022/01/17 00:42:54;;;;;;;51.80;28.13;;;5.90;1.00;;;;;;5082559;28;20989;-57
2022/01/17 00:45:29;;;;;;;46.20;28.90;;;5.90;1.00;;;;;;5084936;28;20198;-58
2022/01/17 00:48:01;;;;;;;52.07;28.50;;;5.80;1.00;;;;;;5083700;28;20198;-57
2022/01/17 00:50:28;;;;;;;54.67;29.70;;;5.90;64.60;;;;;;5044329;28;20198;-56
2022/01/17 00:52:55;;;;;;;51.93;28.83;;;5.90;99.90;;;;;;5088566;28;20281;-56
2022/01/17 00:55:22;;;;;;;56.70;30.90;;;5.90;99.90;;;;;;5056355;28;20700;-59
2022/01/17 00:57:52;;;;;;;53.93;30.60;;;5.90;99.90;;;;;;5088431;28;20230;-57
2022/01/17 01:00:19;;;;;;;56.97;28.40;;;5.80;99.90;;;;;;5087932;28;20191;-58
2022/01/17 01:02:48;;;;;;;50.43;28.50;;;5.90;99.90;;;;;;5068959;28;20260;-57
2022/01/17 01:05:17;;;;;;;55.77;29.73;;;5.90;99.90;;;;;;5066197;28;20199;-57
2022/01/17 01:07:45;;;;;;;61.40;30.37;;;5.90;99.90;;;;;;5085353;28;20198;-56
2022/01/17 01:10:13;;;;;;;53.37;30.67;;;5.90;99.90;;;;;;5089187;28;20205;-57
2022/01/17 01:12:41;;;;;;;59.30;31.00;;;5.90;99.90;;;;;;5071122;28;20697;-57
2022/01/17 01:15:13;;;;;;;55.43;31.73;;;5.90;99.90;;;;;;5068821;28;20194;-58
2022/01/17 01:17:55;;;;;;;55.33;29.30;;;5.90;99.90;;;;;;5046130;28;20194;-58
2022/01/17 01:28:33;;;;;;;52.13;29.37;;;5.90;99.90;;;;;;5087278;28;20252;-57
2022/01/17 01:31:06;;;;;;;55.70;29.63;;;5.90;99.90;;;;;;5069377;28;20225;-58
2022/01/17 01:33:38;;;;;;;49.70;27.67;;;5.90;99.90;;;;;;5070163;28;20221;-57
2022/01/17 01:36:15;;;;;;;56.17;27.50;;;5.90;51.80;;;;;;5070582;28;20186;-57
2022/01/17 01:38:43;;;;;;;45.90;25.70;;;5.90;1.00;;;;;;5087663;28;20197;-57
2022/01/17 01:41:10;;;;;;;48.80;25.77;;;5.90;1.00;;;;;;5055091;28;20533;-57
2022/01/17 01:43:37;;;;;;;47.83;25.30;;;5.90;1.00;;;;;;5070003;28;20222;-57
2022/01/17 01:46:05;;;;;;;56.67;27.67;;;5.90;1.00;;;;;;5053246;28;20202;-58
2022/01/17 01:48:36;;;;;;;40.97;23.63;;;5.90;1.00;;;;;;5070182;28;20194;-57
2022/01/17 01:51:05;;;;;;;42.77;23.57;;;5.90;1.00;;;;;;5053526;28;20190;-57
2022/01/17 01:53:37;;;;;;;46.33;24.93;;;5.90;1.00;;;;;;5087983;28;20609;-57
2022/01/17 01:56:05;;;;;;;48.37;26.23;;;5.90;1.00;;;;;;5052522;28;20605;-57
2022/01/17 01:58:32;;;;;;;41.93;23.60;;;5.90;1.00;;;;;;5062236;28;20244;-57
2022/01/17 02:01:01;;;;;;;44.47;25.60;;;5.90;1.00;;;;;;5066240;28;20262;-57
2022/01/17 02:03:36;;;;;;;44.43;23.23;;;5.90;1.00;;;;;;5069912;28;20316;-56
2022/01/17 02:06:05;;;;;;;43.00;22.80;;;5.90;1.00;;;;;;5067381;28;20198;-56
2022/01/17 02:08:34;;;;;;;46.30;24.30;;;5.90;1.00;;;;;;5069015;28;20194;-57
2022/01/17 02:11:01;;;;;;;45.53;23.67;;;5.90;1.00;;;;;;5066922;28;20536;-57
2022/01/17 02:13:34;;;;;;;45.30;23.40;;;5.90;1.00;;;;;;5088485;28;20285;-57
2022/01/17 02:16:06;;;;;;;41.63;21.63;;;5.90;1.00;;;;;;5062615;28;20288;-57
2022/01/17 02:18:37;;;;;;;39.87;21.13;;;5.90;1.00;;;;;;5063274;28;20226;-57
2022/01/17 02:23:46;;;;;;;39.37;20.70;;;5.90;1.00;;;;;;5088758;28;20811;-56
2022/01/17 02:26:16;;;;;;;42.00;21.37;;;5.90;1.00;;;;;;5069773;28;20194;-57
2022/01/17 02:28:48;;;;;;;38.27;20.43;;;5.90;99.90;;;;;;5062549;28;20263;-57
2022/01/17 02:31:16;;;;;;;42.60;19.30;;;6.00;99.90;;;;;;5070458;28;20202;-57
2022/01/17 02:33:44;;;;;;;32.57;17.77;;;6.00;99.90;;;;;;5087306;28;20347;-57
2022/01/17 02:36:13;;;;;;;39.70;18.20;;;5.90;99.90;;;;;;5077917;28;20194;-57
2022/01/17 02:38:43;;;;;;;34.77;17.57;;;5.90;46.70;;;;;;5086267;28;20198;-58
2022/01/17 02:41:11;;;;;;;34.83;18.43;;;6.00;1.00;;;;;;5070054;28;20279;-56
2022/01/17 02:43:40;;;;;;;37.57;18.10;;;6.00;1.00;;;;;;5062837;28;20214;-56
2022/01/17 02:48:40;;;;;;;27.73;14.37;;;6.00;1.00;;;;;;5069718;28;20244;-57
2022/01/17 02:51:08;;;;;;;29.83;13.40;;;6.00;1.00;;;;;;5068037;28;20236;-57
2022/01/17 02:53:35;;;;;;;26.17;12.30;;;5.90;1.00;;;;;;5068565;28;20197;-57
2022/01/17 02:56:06;;;;;;;24.77;11.13;;;6.00;1.00;;;;;;5054919;28;20259;-57
2022/01/17 02:58:34;;;;;;;22.83;12.10;;;6.00;1.00;;;;;;5051590;28;20216;-57
2022/01/17 03:01:09;;;;;;;28.90;12.40;;;5.90;1.00;;;;;;5069919;28;20202;-57
2022/01/17 03:03:37;;;;;;;25.00;12.17;;;5.90;1.00;;;;;;5085314;28;20783;-57
2022/01/17 03:06:04;;;;;;;30.73;12.90;;;6.00;1.00;;;;;;5060348;28;20712;-57
2022/01/17 03:08:33;;;;;;;23.17;12.10;;;5.90;1.00;;;;;;5066590;28;20198;-57
2022/01/17 03:11:05;;;;;;;23.77;12.63;;;5.90;1.00;;;;;;5070760;28;20246;-58
2022/01/17 03:13:37;;;;;;;26.70;12.83;;;6.00;1.00;;;;;;5034278;28;20203;-58
2022/01/17 03:16:09;;;;;;;23.20;12.43;;;5.90;1.00;;;;;;5087688;28;20263;-57
2022/01/17 03:18:39;;;;;;;30.00;12.57;;;5.90;1.00;;;;;;5069684;28;20194;-57
2022/01/17 03:21:15;;;;;;;26.23;12.63;;;5.90;1.00;;;;;;5084483;28;20265;-57
2022/01/17 03:23:42;;;;;;;26.73;12.30;;;5.90;1.00;;;;;;5059207;28;20292;-57
2022/01/17 03:26:10;;;;;;;19.80;10.63;;;5.80;1.00;;;;;;5069674;28;20258;-57
2022/01/17 03:28:38;;;;;;;26.40;10.03;;;5.90;1.00;;;;;;5069492;28;20213;-57
2022/01/17 03:31:05;;;;;;;26.77;9.97;;;5.80;1.00;;;;;;5086119;28;20232;-58
2022/01/17 03:33:35;;;;;;;16.00;9.17;;;5.90;1.00;;;;;;5068258;28;20788;-57
2022/01/17 03:36:04;;;;;;;22.23;9.53;;;5.80;1.00;;;;;;5066674;28;20230;-57
2022/01/17 03:38:33;;;;;;;26.57;11.27;;;5.80;1.00;;;;;;5052702;28;20310;-57
2022/01/17 03:41:01;;;;;;;27.17;11.43;;;5.80;1.00;;;;;;5068339;28;20285;-58
2022/01/17 03:43:29;;;;;;;30.93;12.57;;;5.90;1.00;;;;;;5069280;28;20301;-57
2022/01/17 03:45:58;;;;;;;31.87;14.73;;;5.80;1.00;;;;;;5084555;28;20194;-58
2022/01/17 03:48:27;;;;;;;30.17;13.40;;;5.90;1.00;;;;;;5086644;28;20220;-57
2022/01/17 03:51:00;;;;;;;25.50;13.03;;;5.80;1.00;;;;;;5060333;28;20654;-56
2022/01/17 03:53:28;;;;;;;34.77;15.20;;;5.80;1.00;;;;;;5081766;28;20217;-57
2022/01/17 03:55:55;;;;;;;28.30;14.17;;;5.80;1.00;;;;;;5066450;28;20229;-56
2022/01/17 03:58:27;;;;;;;35.20;15.60;;;5.80;1.00;;;;;;5066808;28;20199;-57
2022/01/17 04:00:58;;;;;;;35.13;15.93;;;5.80;1.00;;;;;;5083279;28;20189;-57
2022/01/17 04:03:26;;;;;;;35.30;16.03;;;5.90;1.00;;;;;;5060577;28;20747;-59
2022/01/17 04:05:55;;;;;;;35.47;17.37;;;5.80;1.00;;;;;;5068342;28;20198;-58
2022/01/17 04:08:25;;;;;;;44.07;18.53;;;5.80;1.00;;;;;;5068913;28;20234;-57
2022/01/17 04:10:52;;;;;;;35.63;19.43;;;5.80;1.00;;;;;;5078042;28;20297;-57
2022/01/17 04:13:19;;;;;;;37.17;18.77;;;5.80;1.00;;;;;;5046734;28;20689;-57
2022/01/17 04:15:49;;;;;;;38.27;19.77;;;5.80;1.00;;;;;;5067559;28;20838;-57
2022/01/17 04:18:23;;;;;;;38.10;20.67;;;5.70;1.00;;;;;;5028923;28;20202;-57
2022/01/17 04:20:52;;;;;;;42.80;20.90;;;5.80;1.00;;;;;;5079201;28;20222;-58
2022/01/17 04:23:20;;;;;;;36.73;21.10;;;5.70;7.50;;;;;;5059166;28;20233;-58
2022/01/17 04:25:48;;;;;;;40.77;20.67;;;5.80;1.00;;;;;;5068451;28;20240;-56
2022/01/17 04:28:15;;;;;;;42.77;20.83;;;5.80;1.00;;;;;;5072703;28;20277;-57
2022/01/17 04:30:43;;;;;;;40.37;20.17;;;5.80;1.00;;;;;;5073264;28;20566;-58
2022/01/17 04:33:10;;;;;;;37.80;20.07;;;5.80;1.00;;;;;;5068420;28;20248;-56
2022/01/17 04:35:41;;;;;;;41.37;20.50;;;5.70;1.00;;;;;;5088470;28;20194;-56
2022/01/17 04:38:17;;;;;;;40.73;20.27;;;5.60;18.80;;;;;;5072547;28;20225;-58
2022/01/17 04:40:50;;;;;;;40.53;20.73;;;5.60;27.20;;;;;;5072904;28;20978;-57
2022/01/17 04:43:43;;;;;;;42.57;19.03;;;5.60;1.00;;;;;;5090577;28;20603;-57
2022/01/17 04:46:11;;;;;;;36.83;19.50;;;5.60;1.00;;;;;;5091334;28;20191;-57
2022/01/17 04:48:40;;;;;;;36.57;19.13;;;5.50;1.00;;;;;;5091031;28;20272;-57
2022/01/17 04:51:09;;;;;;;34.77;18.97;;;5.60;1.00;;;;;;5071945;28;20199;-57
2022/01/17 04:53:36;;;;;;;34.73;18.70;;;5.60;1.00;;;;;;5039430;28;20206;-57
2022/01/17 04:56:03;;;;;;;35.23;20.73;;;5.60;1.00;;;;;;5073073;28;20207;-56
2022/01/17 04:58:32;;;;;;;33.13;18.20;;;5.60;1.00;;;;;;5070561;28;20198;-56
2022/01/17 05:01:01;;;;;;;35.40;17.53;;;5.60;1.00;;;;;;5073140;28;20285;-57
2022/01/17 05:03:30;;;;;;;37.93;18.20;;;5.60;1.00;;;;;;5062671;28;20222;-57
2022/01/17 05:05:57;;;;;;;30.57;15.93;;;5.60;1.00;;;;;;5070225;28;20224;-57
2022/01/17 05:08:24;;;;;;;31.73;16.93;;;5.60;1.00;;;;;;5089444;28;20633;-56
2022/01/17 05:10:54;;;;;;;36.80;16.43;;;5.60;1.00;;;;;;5069499;28;20861;-56
2022/01/17 05:13:27;;;;;;;29.83;14.90;;;5.60;1.00;;;;;;5086145;28;20199;-56
2022/01/17 05:16:07;;;;;;;31.80;14.80;;;5.60;1.00;;;;;;5069804;28;20233;-57
2022/01/17 05:21:01;;;;;;;26.20;12.47;;;5.60;1.00;;;;;;5068187;28;20221;-56
2022/01/17 05:23:28;;;;;;;32.80;12.00;;;5.70;1.00;;;;;;5070491;28;20884;-56
2022/01/17 05:25:57;;;;;;;28.57;12.30;;;5.70;1.00;;;;;;5065263;28;20229;-58
2022/01/17 05:28:24;;;;;;;27.93;9.80;;;5.60;1.00;;;;;;5070284;28;20805;-57
2022/01/17 05:30:55;;;;;;;30.90;10.03;;;5.60;99.90;;;;;;5069600;28;21028;-58
2022/01/17 05:33:22;;;;;;;21.50;8.83;;;5.70;99.90;;;;;;5087187;28;21227;-57
2022/01/17 05:35:48;;;;;;;23.80;9.57;;;5.70;99.90;;;;;;5077055;28;20677;-58
2022/01/17 05:38:15;;;;;;;21.37;8.37;;;5.70;99.90;;;;;;5084897;28;20629;-57
2022/01/17 05:40:42;;;;;;;26.87;9.67;;;5.70;99.90;;;;;;5068231;28;20198;-59
2022/01/17 05:43:11;;;;;;;21.27;8.37;;;5.70;99.90;;;;;;5086737;28;20203;-57
2022/01/17 05:45:39;;;;;;;22.03;9.00;;;5.60;99.90;;;;;;5080479;28;20199;-57
2022/01/17 05:48:08;;;;;;;19.83;9.37;;;5.60;99.90;;;;;;5054030;28;22725;-57
2022/01/17 05:50:35;;;;;;;21.63;9.27;;;5.60;99.90;;;;;;5063766;28;20190;-57
2022/01/17 05:53:01;;;;;;;17.33;9.77;;;5.50;1.00;;;;;;5069676;28;20194;-58
2022/01/17 05:55:33;;;;;;;22.83;8.27;;;5.50;1.00;;;;;;5070223;28;20206;-58
2022/01/17 05:58:02;;;;;;;25.47;10.17;;;5.60;1.00;;;;;;5088909;28;20703;-57
2022/01/17 06:00:29;;;;;;;28.50;10.30;;;5.60;1.00;;;;;;5068338;28;20616;-57
2022/01/17 06:02:56;;;;;;;18.00;9.40;;;5.60;1.00;;;;;;5070436;28;20195;-58
2022/01/17 06:05:23;;;;;;;20.27;10.13;;;5.60;1.00;;;;;;5067939;28;20225;-58
2022/01/17 06:07:50;;;;;;;26.00;11.17;;;5.70;1.00;;;;;;5086742;28;20599;-59
2022/01/17 06:10:17;;;;;;;21.00;9.23;;;5.70;1.00;;;;;;5078212;28;20868;-57
2022/01/17 06:12:44;;;;;;;24.13;10.10;;;5.70;1.00;;;;;;5082220;28;20198;-58
2022/01/17 06:15:12;;;;;;;21.77;10.57;;;5.80;1.00;;;;;;5059429;28;20226;-58
2022/01/17 06:17:39;;;;;;;29.97;11.40;;;5.80;1.00;;;;;;5065837;28;20300;-57
2022/01/17 06:20:07;;;;;;;28.77;9.77;;;5.80;1.00;;;;;;5084718;28;20811;-58
2022/01/17 06:22:33;;;;;;;23.47;10.13;;;5.80;1.00;;;;;;5080062;28;20633;-58
2022/01/17 06:25:01;;;;;;;24.63;8.87;;;5.80;1.00;;;;;;5069850;28;20309;-57
2022/01/17 06:27:28;;;;;;;23.43;9.30;;;5.80;1.00;;;;;;5083361;28;20252;-57
2022/01/17 06:29:56;;;;;;;19.77;9.13;;;5.80;99.90;;;;;;5064674;28;21608;-58
2022/01/17 06:32:24;;;;;;;22.43;9.13;;;5.90;1.00;;;;;;5067591;28;20712;-59
2022/01/17 06:34:53;;;;;;;22.63;8.77;;;5.90;99.90;;;;;;5086746;28;21309;-58
2022/01/17 06:37:21;;;;;;;23.20;7.97;;;5.90;1.00;;;;;;5063193;28;22302;-58
2022/01/17 06:39:53;;;;;;;24.50;8.80;;;5.90;99.90;;;;;;5086381;28;20186;-57
2022/01/17 06:42:21;;;;;;;22.70;7.43;;;5.80;1.00;;;;;;5062733;28;20203;-58
2022/01/17 06:44:51;;;;;;;25.40;8.47;;;5.90;99.90;;;;;;5068195;28;20263;-57
2022/01/17 06:47:23;;;;;;;20.97;7.00;;;5.90;99.90;;;;;;5046304;28;20195;-57
2022/01/17 06:49:50;;;;;;;13.40;6.90;;;5.80;1.00;;;;;;5052940;28;20534;-57
2022/01/17 06:52:17;;;;;;;22.27;8.27;;;5.80;1.00;;;;;;5062493;28;20627;-58
2022/01/17 06:54:45;;;;;;;17.93;8.03;;;5.80;99.90;;;;;;5069275;28;20194;-57
2022/01/17 06:57:11;;;;;;;19.23;9.00;;;5.90;99.90;;;;;;5067525;28;20297;-56
2022/01/17 06:59:41;;;;;;;18.97;6.90;;;5.90;99.90;;;;;;5055529;28;20222;-57
2022/01/17 07:02:08;;;;;;;27.20;10.07;;;5.80;99.90;;;;;;5048044;28;20222;-57
2022/01/17 07:04:35;;;;;;;22.67;8.03;;;5.80;99.90;;;;;;5081449;28;20241;-57
2022/01/17 07:07:08;;;;;;;16.37;6.57;;;5.90;99.90;;;;;;5057940;28;20202;-59
2022/01/17 07:09:36;;;;;;;23.07;7.93;;;5.90;99.90;;;;;;5064860;28;20886;-56
2022/01/17 07:12:04;;;;;;;20.20;6.07;;;5.90;99.90;;;;;;5044171;28;20213;-57
2022/01/17 07:14:31;;;;;;;19.27;6.63;;;5.90;99.90;;;;;;5078927;28;20669;-57
2022/01/17 07:17:00;;;;;;;23.77;7.10;;;5.90;99.90;;;;;;5057252;28;20546;-56
2022/01/17 07:19:27;;;;;;;20.60;6.70;;;5.90;99.90;;;;;;5061349;28;20303;-57
2022/01/17 07:21:56;;;;;;;23.37;8.70;;;5.90;99.90;;;;;;5077016;28;20234;-58
2022/01/17 07:24:42;;;;;;;20.13;7.67;;;5.90;99.90;;;;;;5048789;28;20214;-57
2022/01/17 07:27:09;;;;;;;18.70;6.07;;;5.90;99.90;;;;;;5057310;28;20218;-55
2022/01/17 07:29:36;;;;;;;21.80;8.10;;;5.90;99.90;;;;;;5049155;28;20194;-57
2022/01/17 07:32:03;;;;;;;17.90;6.97;;;5.90;99.90;;;;;;5061235;28;20191;-56
2022/01/17 07:34:30;;;;;;;23.27;8.03;;;6.00;99.90;;;;;;5060203;28;20230;-56
2022/01/17 07:36:59;;;;;;;21.23;6.67;;;6.00;99.90;;;;;;5055237;28;20191;-57
2022/01/17 07:39:27;;;;;;;20.67;8.27;;;6.00;99.90;;;;;;5045742;28;20751;-57
2022/01/17 07:41:54;;;;;;;20.87;7.07;;;6.00;99.90;;;;;;5060336;28;20800;-57
2022/01/17 07:44:27;;;;;;;24.20;8.97;;;6.10;99.90;;;;;;5044397;28;20223;-56
2022/01/17 07:46:56;;;;;;;25.10;9.40;;;6.10;99.90;;;;;;5058216;28;20272;-57
2022/01/17 07:49:25;;;;;;;37.43;11.47;;;6.10;99.90;;;;;;5058319;28;20589;-57
2022/01/17 07:52:02;;;;;;;31.70;10.07;;;6.10;99.90;;;;;;5060239;28;20207;-57
2022/01/17 07:54:32;;;;;;;19.47;7.03;;;6.10;99.90;;;;;;5056794;28;20231;-56
2022/01/17 07:57:01;;;;;;;22.77;8.13;;;6.10;99.90;;;;;;5056570;28;20191;-57
2022/01/17 07:59:28;;;;;;;23.70;6.10;;;6.10;99.90;;;;;;5056709;28;20754;-57
2022/01/17 08:01:55;;;;;;;18.03;8.07;;;6.20;99.90;;;;;;5037371;28;20543;-56
2022/01/17 08:04:25;;;;;;;12.73;5.53;;;6.10;99.90;;;;;;5054502;28;20242;-57
2022/01/17 08:06:51;;;;;;;17.77;6.40;;;6.10;99.90;;;;;;5056527;28;20198;-56
2022/01/17 08:09:29;;;;;;;26.97;10.27;;;6.10;99.90;;;;;;5061583;28;20281;-56
2022/01/17 08:12:03;;;;;;;20.53;7.40;;;6.10;1.00;;;;;;5056083;28;20200;-57
2022/01/17 08:14:32;;;;;;;15.33;7.03;;;6.10;1.00;;;;;;5038289;28;23278;-57
2022/01/17 08:16:59;;;;;;;14.13;5.00;;;6.20;1.00;;;;;;5047876;28;20273;-56
2022/01/17 08:19:29;;;;;;;15.60;6.37;;;6.20;99.90;;;;;;5056461;28;20202;-57
2022/01/17 08:22:03;;;;;;;18.87;7.03;;;6.20;99.90;;;;;;5054708;28;20311;-58
2022/01/17 08:24:31;;;;;;;17.53;6.43;;;6.30;99.90;;;;;;5055232;28;20207;-56
2022/01/17 08:26:59;;;;;;;17.93;5.93;;;6.30;1.00;;;;;;5036988;28;20207;-56
2022/01/17 08:29:29;;;;;;;22.63;6.10;;;6.30;99.90;;;;;;5040228;28;20194;-57
2022/01/17 08:31:58;;;;;;;18.83;5.97;;;6.30;99.90;;;;;;5055001;28;20199;-57
2022/01/17 08:34:25;;;;;;;15.97;6.70;;;6.30;99.90;;;;;;5067855;28;20716;-56
2022/01/17 08:36:53;;;;;;;19.57;7.33;;;6.30;1.00;;;;;;5072935;28;20198;-57
2022/01/17 08:39:24;;;;;;;14.07;7.47;;;6.40;1.00;;;;;;5056293;28;20233;-58
2022/01/17 08:41:53;;;;;;;23.43;9.87;;;6.30;1.00;;;;;;5064770;28;20205;-57
2022/01/17 08:44:23;;;;;;;23.33;9.47;;;6.30;1.00;;;;;;5079005;28;20213;-57
2022/01/17 08:46:50;;;;;;;23.57;10.50;;;6.20;1.00;;;;;;5046035;28;20255;-59
2022/01/17 08:49:17;;;;;;;20.47;9.80;;;6.30;1.00;;;;;;5062976;28;20563;-58
2022/01/17 08:51:45;;;;;;;18.57;9.67;;;6.30;1.00;;;;;;5059541;28;20194;-56
2022/01/17 08:54:12;;;;;;;20.13;10.27;;;6.30;1.00;;;;;;5078350;28;20677;-57
2022/01/17 08:56:39;;;;;;;22.70;10.63;;;6.30;1.00;;;;;;5077221;28;20533;-57
2022/01/17 08:59:08;;;;;;;23.47;10.83;;;6.40;1.00;;;;;;5076194;28;20211;-56
2022/01/17 09:01:39;;;;;;;24.00;11.67;;;6.50;1.00;;;;;;5045549;28;20190;-57
2022/01/17 09:04:06;;;;;;;28.67;14.23;;;6.60;1.00;;;;;;5060657;28;20252;-57
2022/01/17 09:06:33;;;;;;;33.20;14.57;;;6.60;1.00;;;;;;5077104;28;20723;-56
2022/01/17 09:09:00;;;;;;;19.47;12.63;;;6.70;1.00;;;;;;5061110;28;20205;-58
2022/01/17 09:11:28;;;;;;;23.47;13.10;;;6.70;1.00;;;;;;5045791;28;20198;-57
2022/01/17 09:13:55;;;;;;;23.30;14.37;;;6.70;1.00;;;;;;5049292;28;20713;-56
2022/01/17 09:16:22;;;;;;;18.50;12.67;;;6.70;1.00;;;;;;5078530;28;20282;-57
2022/01/17 09:18:49;;;;;;;25.40;12.63;;;6.70;1.00;;;;;;5048380;28;20197;-56
2022/01/17 09:21:17;;;;;;;18.60;11.50;;;6.70;1.00;;;;;;5064161;28;20337;-56
2022/01/17 09:23:53;;;;;;;22.90;12.50;;;6.70;1.00;;;;;;5078492;28;20193;-58
2022/01/17 09:26:25;;;;;;;28.37;12.87;;;6.60;1.00;;;;;;5078794;28;20578;-56
2022/01/17 09:28:53;;;;;;;22.77;12.10;;;6.70;1.00;;;;;;5078241;28;20207;-57
2022/01/17 09:31:23;;;;;;;24.27;12.33;;;6.60;1.00;;;;;;5079205;28;20204;-58
2022/01/17 09:33:53;;;;;;;26.83;13.10;;;6.50;1.00;;;;;;5066302;28;20304;-57
2022/01/17 09:36:28;;;;;;;22.53;13.33;;;6.60;1.00;;;;;;5056608;28;20285;-56
2022/01/17 09:38:58;;;;;;;21.40;13.10;;;6.60;1.00;;;;;;5081893;28;20679;-57
2022/01/17 09:41:25;;;;;;;22.40;12.77;;;6.60;1.00;;;;;;5051755;28;20449;-56
2022/01/17 09:43:58;;;;;;;27.07;14.17;;;6.50;1.00;;;;;;5083021;28;20220;-56
2022/01/17 09:46:32;;;;;;;28.43;14.83;;;6.50;1.00;;;;;;5059453;28;20721;-57
2022/01/17 09:49:13;;;;;;;22.23;14.70;;;6.50;1.00;;;;;;5081442;28;20277;-57
2022/01/17 09:54:31;;;;;;;25.17;14.17;;;6.50;1.00;;;;;;5080752;28;20514;-56
2022/01/17 09:57:01;;;;;;;20.70;14.00;;;6.60;1.00;;;;;;5066171;28;20289;-58
2022/01/17 09:59:33;;;;;;;27.37;14.50;;;6.60;1.00;;;;;;5079866;28;20197;-56
2022/01/17 10:02:00;;;;;;;25.63;16.10;;;6.50;1.00;;;;;;5060583;28;20222;-56
2022/01/17 10:04:27;;;;;;;23.20;16.00;;;6.50;99.90;;;;;;5062696;28;20202;-56
2022/01/17 10:06:56;;;;;;;24.80;16.70;;;6.40;87.10;;;;;;5058552;28;20190;-57
2022/01/17 10:09:25;;;;;;;21.00;16.00;;;6.50;97.90;;;;;;5078912;28;20191;-56
2022/01/17 10:12:08;;;;;;;29.57;17.27;;;6.50;99.90;;;;;;5064244;28;20190;-57
2022/01/17 10:14:39;;;;;;;26.83;16.77;;;6.40;99.90;;;;;;5049535;28;20210;-56
2022/01/17 10:17:17;;;;;;;30.13;17.10;;;6.40;99.90;;;;;;5041014;28;20661;-56
2022/01/17 10:19:57;;;;;;;26.70;16.80;;;6.50;99.90;;;;;;5047130;28;20301;-57
2022/01/17 10:22:32;;;;;;;22.23;16.93;;;6.40;99.90;;;;;;5046132;28;20324;-56
2022/01/17 10:25:29;;;;;;;28.13;16.07;;;6.50;99.90;;;;;;5066785;28;20336;-57
2022/01/17 10:29:01;;;;;;;22.93;16.13;;;6.50;99.90;;;;;;5063671;28;20732;-56
2022/01/17 10:36:49;;;;;;;22.30;16.70;;;6.60;99.90;;;;;;5080857;28;20331;-56
2022/01/17 10:39:16;;;;;;;23.53;15.70;;;6.60;1.00;;;;;;5065194;28;20222;-56
2022/01/17 10:41:45;;;;;;;25.87;18.03;;;6.60;1.00;;;;;;5065946;28;20197;-56
2022/01/17 10:44:37;;;;;;;27.73;18.40;;;6.50;1.00;;;;;;5082410;28;20198;-57
2022/01/17 10:47:21;;;;;;;26.17;17.27;;;6.50;1.00;;;;;;5079887;28;20194;-56
2022/01/17 10:50:04;;;;;;;31.17;16.67;;;6.50;1.00;;;;;;5063276;28;20198;-57
2022/01/17 10:52:42;;;;;;;20.63;16.70;;;6.50;1.00;;;;;;5079505;28;20356;-57
2022/01/17 10:55:18;;;;;;;29.63;16.40;;;6.60;1.00;;;;;;5062853;28;20673;-56
2022/01/17 10:57:50;;;;;;;25.03;18.17;;;6.60;1.00;;;;;;5079842;28;20265;-57
2022/01/17 11:00:23;;;;;;;20.70;14.80;;;6.70;1.00;;;;;;5078383;28;20213;-56
2022/01/17 11:02:56;;;;;;;23.50;16.60;;;6.70;1.00;;;;;;5076633;28;20279;-57
2022/01/17 11:05:27;;;;;;;29.57;16.97;;;6.70;1.00;;;;;;5059642;28;20850;-57
2022/01/17 11:07:58;;;;;;;22.53;16.87;;;6.70;1.00;;;;;;5077535;28;20266;-57
2022/01/17 11:10:27;;;;;;;22.47;15.00;;;6.80;1.00;;;;;;5065835;28;20256;-56
2022/01/17 11:12:57;;;;;;;24.47;15.33;;;6.70;1.00;;;;;;5042107;28;20186;-57
2022/01/17 11:15:27;;;;;;;23.77;15.43;;;6.80;1.00;;;;;;5076767;28;20226;-56
2022/01/17 11:17:59;;;;;;;24.30;15.47;;;6.70;1.00;;;;;;5057337;28;20209;-56
2022/01/17 11:20:28;;;;;;;22.33;14.50;;;6.70;1.00;;;;;;5075815;28;20195;-56
2022/01/17 11:22:57;;;;;;;21.50;13.27;;;6.70;1.00;;;;;;5052537;28;20281;-56
2022/01/17 11:25:33;;;;;;;27.10;15.20;;;6.70;1.00;;;;;;5060423;28;20286;-57
2022/01/17 11:28:02;;;;;;;27.07;15.33;;;6.80;1.00;;;;;;5065752;28;20232;-56
2022/01/17 11:30:33;;;;;;;25.17;14.30;;;6.80;1.00;;;;;;5077135;28;20248;-56
2022/01/17 11:33:04;;;;;;;23.80;13.77;;;6.80;1.00;;;;;;5057871;28;20196;-57
2022/01/17 11:35:34;;;;;;;24.20;14.60;;;6.80;1.00;;;;;;5059098;28;20255;-57
2022/01/17 11:38:03;;;;;;;22.57;13.30;;;6.70;1.00;;;;;;5063951;28;20554;-56
2022/01/17 11:40:36;;;;;;;30.40;14.77;;;6.80;1.00;;;;;;5070026;28;20202;-57
2022/01/17 11:43:22;;;;;;;26.73;15.43;;;6.70;1.00;;;;;;5047582;28;20206;-56
2022/01/17 11:45:51;;;;;;;31.57;16.40;;;6.80;1.00;;;;;;5061240;28;20245;-57
2022/01/17 11:48:20;;;;;;;26.87;14.77;;;6.80;1.00;;;;;;5073368;28;20723;-56
2022/01/17 11:50:49;;;;;;;26.07;16.37;;;6.80;1.00;;;;;;5055609;28;20222;-56
2022/01/17 11:53:19;;;;;;;25.90;15.03;;;6.90;1.00;;;;;;5059868;28;20546;-57
2022/01/17 11:55:53;;;;;;;24.23;14.03;;;6.90;1.00;;;;;;5072141;28;20237;-57
2022/01/17 11:58:31;;;;;;;29.83;15.97;;;6.80;1.00;;;;;;5042871;28;20233;-56
2022/01/17 12:01:00;;;;;;;24.97;12.83;;;6.90;1.00;;;;;;5063046;28;20248;-57
2022/01/17 12:03:29;;;;;;;22.20;13.40;;;6.90;1.00;;;;;;5056751;28;20212;-56
2022/01/17 12:06:11;;;;;;;23.33;12.87;;;6.90;1.00;;;;;;5042842;28;20220;-56
2022/01/17 12:08:38;;;;;;;23.63;12.20;;;6.90;1.00;;;;;;5046094;28;20230;-56
2022/01/17 12:11:23;;;;;;;33.10;12.20;;;6.90;1.00;;;;;;5050820;28;20238;-57
2022/01/17 12:13:50;;;;;;;31.63;11.67;;;6.90;1.00;;;;;;5058721;28;20313;-57
2022/01/17 12:16:30;;;;;;;30.43;12.07;;;6.90;1.00;;;;;;5057413;28;20665;-56
2022/01/17 12:18:59;;;;;;;31.87;13.03;;;6.90;1.00;;;;;;5076095;28;20205;-57
2022/01/17 12:21:34;;;;;;;28.80;12.53;;;6.90;1.00;;;;;;5061153;28;20226;-56
2022/01/17 12:24:16;;;;;;;33.63;12.90;;;6.90;1.00;;;;;;5072210;28;20202;-56
2022/01/17 12:27:03;;;;;;;26.97;12.20;;;6.90;1.00;;;;;;5062928;28;20706;-57
2022/01/17 12:29:44;;;;;;;29.03;12.13;;;7.00;1.00;;;;;;5079040;28;20255;-56
2022/01/17 12:32:20;;;;;;;28.73;13.57;;;7.00;1.00;;;;;;5047385;28;20206;-56
2022/01/17 12:34:48;;;;;;;31.20;12.73;;;7.00;1.00;;;;;;5075602;28;20911;-56
2022/01/17 12:37:39;;;;;;;30.17;11.80;;;7.00;1.00;;;;;;5061572;28;20677;-57
2022/01/17 12:40:31;;;;;;;38.67;14.77;;;7.00;1.00;;;;;;5080848;28;20229;-56
2022/01/17 12:43:06;;;;;;;32.53;13.90;;;7.00;1.00;;;;;;5061613;28;20221;-56
2022/01/17 12:45:42;;;;;;;36.20;15.43;;;7.00;99.90;;;;;;5061515;28;20217;-56
2022/01/17 12:48:13;;;;;;;51.47;15.73;;;7.10;99.90;;;;;;5067148;28;20327;-56
2022/01/17 12:50:44;;;;;;;32.57;14.93;;;7.10;99.90;;;;;;5049744;28;20294;-56
2022/01/17 12:53:14;;;;;;;42.07;14.87;;;7.10;99.90;;;;;;5061584;28;20263;-56
2022/01/17 12:55:50;;;;;;;32.03;13.97;;;7.10;99.90;;;;;;5081658;28;20300;-56
2022/01/17 12:58:20;;;;;;;25.00;12.20;;;7.10;99.90;;;;;;5065253;28;20293;-56
2022/01/17 13:00:54;;;;;;;35.80;13.23;;;7.20;99.90;;;;;;5060868;28;20289;-57
2022/01/17 13:03:27;;;;;;;34.80;12.40;;;7.20;99.90;;;;;;5077867;28;20194;-56
2022/01/17 13:05:54;;;;;;;27.90;11.10;;;7.20;99.90;;;;;;5069558;28;20218;-56
2022/01/17 13:08:23;;;;;;;32.30;10.97;;;7.20;99.90;;;;;;5049234;28;20201;-57
2022/01/17 13:10:54;;;;;;;26.50;9.83;;;7.30;99.90;;;;;;5070098;28;20262;-56
2022/01/17 13:13:23;;;;;;;34.97;10.03;;;7.20;99.90;;;;;;5077334;28;20762;-57
2022/01/17 13:15:54;;;;;;;33.40;11.83;;;7.20;99.90;;;;;;5066279;28;20251;-56
2022/01/17 13:18:21;;;;;;;33.70;10.33;;;7.20;99.90;;;;;;5077492;28;20256;-57
2022/01/17 13:20:48;;;;;;;38.50;10.80;;;7.20;99.90;;;;;;5064778;28;20222;-57
2022/01/17 13:23:26;;;;;;;36.70;12.97;;;7.20;99.90;;;;;;5082185;28;20254;-57
2022/01/17 13:25:53;;;;;;;34.97;11.83;;;7.20;99.90;;;;;;5063553;28;21195;-56
2022/01/17 13:28:20;;;;;;;32.07;10.57;;;7.20;99.90;;;;;;5061152;28;20202;-58